Time;durP1;ratioP1;P1;durP2;ratioP2;P2;SDS_P1;SDS_P2;PMS_P1;PMS_P2;Temp;Humidity;BMP_temperature;BMP_pressure;BME280_temperature;BME280_humidity;BME280_pressure;Samples;Min_cycle;Max_cycle;Signal;HPM_P1;HPM_P2
2023/03/23 00:00:15;;;;;;;11.50;3.67;;;;;;;;;;4976620;28;20222;-67
2023/03/23 00:02:40;;;;;;;10.18;3.60;;;;;;;;;;4958333;28;20693;-67
2023/03/23 00:05:07;;;;;;;7.95;3.50;;;;;;;;;;4957058;28;20222;-67
2023/03/23 00:07:32;;;;;;;8.35;3.70;;;;;;;;;;4956757;28;20574;-67
2023/03/23 00:09:58;;;;;;;7.22;3.55;;;;;;;;;;4954751;28;20821;-67
2023/03/23 00:12:33;;;;;;;6.68;3.60;;;;;;;;;;4951437;28;20778;-67
2023/03/23 00:15:05;;;;;;;6.85;3.45;;;;;;;;;;4946537;28;20291;-67
2023/03/23 00:17:32;;;;;;;6.68;3.35;;;;;;;;;;4957593;28;20314;-67
2023/03/23 00:19:58;;;;;;;8.35;3.53;;;;;;;;;;4928046;28;20281;-67
2023/03/23 00:22:24;;;;;;;8.90;3.58;;;;;;;;;;4944465;28;20218;-67
2023/03/23 00:24:50;;;;;;;7.13;3.33;;;;;;;;;;4963581;28;20292;-67
2023/03/23 00:27:15;;;;;;;9.50;3.33;;;;;;;;;;4930742;28;20223;-67
2023/03/23 00:29:41;;;;;;;5.07;3.03;;;;;;;;;;4937431;28;20218;-68
2023/03/23 00:32:12;;;;;;;6.07;3.00;;;;;;;;;;4936596;28;20668;-67
2023/03/23 00:34:38;;;;;;;9.25;3.53;;;;;;;;;;4942246;28;20716;-67
2023/03/23 00:37:03;;;;;;;6.03;3.13;;;;;;;;;;4944416;28;20754;-67
2023/03/23 00:39:28;;;;;;;6.80;3.25;;;;;;;;;;4944775;28;20222;-68
2023/03/23 00:42:00;;;;;;;8.25;3.70;;;;;;;;;;4944688;28;20269;-68
2023/03/23 00:44:25;;;;;;;7.43;3.10;;;;;;;;;;4947264;28;20296;-68
2023/03/23 00:46:50;;;;;;;5.57;3.20;;;;;;;;;;4959825;28;20557;-68
2023/03/23 00:49:17;;;;;;;7.15;3.15;;;;;;;;;;4941618;28;20269;-68
2023/03/23 00:51:42;;;;;;;5.80;3.20;;;;;;;;;;4937376;28;20536;-68
2023/03/23 00:54:07;;;;;;;6.57;3.15;;;;;;;;;;4936352;28;20226;-68
2023/03/23 00:56:33;;;;;;;7.10;3.60;;;;;;;;;;4939498;28;20222;-66
2023/03/23 00:58:58;;;;;;;6.03;3.47;;;;;;;;;;4946910;28;20674;-66
2023/03/23 01:01:23;;;;;;;6.43;3.05;;;;;;;;;;4928596;28;20226;-66
2023/03/23 01:03:49;;;;;;;6.07;3.13;;;;;;;;;;4946304;28;20207;-66
2023/03/23 01:06:14;;;;;;;5.13;3.17;;;;;;;;;;4945701;28;20210;-66
2023/03/23 01:08:44;;;;;;;7.72;3.30;;;;;;;;;;4928956;28;20225;-66
2023/03/23 01:11:10;;;;;;;4.95;3.05;;;;;;;;;;4945128;28;20215;-66
2023/03/23 01:13:36;;;;;;;8.35;3.30;;;;;;;;;;4957416;28;20598;-66
2023/03/23 01:16:01;;;;;;;7.18;3.30;;;;;;;;;;4955633;28;20236;-66
2023/03/23 01:18:27;;;;;;;6.65;3.33;;;;;;;;;;4957605;28;20205;-66
2023/03/23 01:20:52;;;;;;;5.47;3.05;;;;;;;;;;4962065;28;20206;-66
2023/03/23 01:23:17;;;;;;;7.28;3.65;;;;;;;;;;4945121;28;20226;-66
2023/03/23 01:25:44;;;;;;;8.02;3.45;;;;;;;;;;4945816;28;20305;-66
2023/03/23 01:28:10;;;;;;;7.28;3.42;;;;;;;;;;4927874;28;20221;-66
2023/03/23 01:30:35;;;;;;;6.57;3.42;;;;;;;;;;4945430;28;20234;-66
2023/03/23 01:33:01;;;;;;;8.38;3.55;;;;;;;;;;4944913;28;20564;-66
2023/03/23 01:35:26;;;;;;;6.97;3.70;;;;;;;;;;4939645;28;20222;-66
2023/03/23 01:37:51;;;;;;;8.13;3.80;;;;;;;;;;4955834;28;20300;-66
2023/03/23 01:40:16;;;;;;;7.35;3.47;;;;;;;;;;4940103;28;20717;-66
2023/03/23 01:42:42;;;;;;;5.93;3.17;;;;;;;;;;4943038;28;20219;-66
2023/03/23 01:45:20;;;;;;;7.88;3.45;;;;;;;;;;4927929;28;20223;-66
2023/03/23 01:47:46;;;;;;;7.40;3.28;;;;;;;;;;4947018;28;20210;-66
2023/03/23 01:50:12;;;;;;;6.28;3.50;;;;;;;;;;4946175;28;20229;-66
2023/03/23 01:52:37;;;;;;;5.82;3.38;;;;;;;;;;4947140;28;21086;-66
2023/03/23 01:55:03;;;;;;;7.22;3.25;;;;;;;;;;4963787;28;20241;-66
2023/03/23 01:57:29;;;;;;;5.63;3.50;;;;;;;;;;4942693;28;20198;-66
2023/03/23 01:59:55;;;;;;;6.68;3.40;;;;;;;;;;4955965;28;20280;-66
2023/03/23 02:02:21;;;;;;;10.40;3.50;;;;;;;;;;4922761;28;20219;-66
2023/03/23 02:04:46;;;;;;;5.25;3.17;;;;;;;;;;4942398;28;20213;-66
2023/03/23 02:07:12;;;;;;;6.03;3.42;;;;;;;;;;4963457;28;20271;-66
2023/03/23 02:09:37;;;;;;;5.93;3.17;;;;;;;;;;4964266;28;20210;-66
2023/03/23 02:12:03;;;;;;;6.00;3.17;;;;;;;;;;4963009;28;20624;-66
2023/03/23 02:14:28;;;;;;;6.30;3.42;;;;;;;;;;4946283;28;20253;-66
2023/03/23 02:17:03;;;;;;;5.85;3.70;;;;;;;;;;4964105;28;20216;-66
2023/03/23 02:19:29;;;;;;;9.70;3.97;;;;;;;;;;4943748;28;20300;-66
2023/03/23 02:22:12;;;;;;;6.97;3.47;;;;;;;;;;4946021;28;20570;-66
2023/03/23 02:24:52;;;;;;;6.53;3.60;;;;;;;;;;4967035;28;20210;-66
2023/03/23 02:27:36;;;;;;;5.90;3.20;;;;;;;;;;4945137;29;20301;-66
2023/03/23 02:30:07;;;;;;;6.93;3.63;;;;;;;;;;4960254;28;20240;-66
2023/03/23 02:32:32;;;;;;;5.18;3.33;;;;;;;;;;4955564;28;20218;-66
2023/03/23 02:35:05;;;;;;;8.10;3.40;;;;;;;;;;4973227;28;20312;-66
2023/03/23 02:37:31;;;;;;;6.93;3.70;;;;;;;;;;4956340;28;20214;-66
2023/03/23 02:39:58;;;;;;;6.22;3.70;;;;;;;;;;4941735;29;20218;-66
2023/03/23 02:42:25;;;;;;;5.25;3.58;;;;;;;;;;4936643;29;20214;-66
2023/03/23 02:44:50;;;;;;;5.85;3.60;;;;;;;;;;4937304;29;20674;-66
2023/03/23 02:47:17;;;;;;;7.32;4.03;;;;;;;;;;4953267;29;20220;-66
2023/03/23 02:49:42;;;;;;;6.50;3.42;;;;;;;;;;4936836;29;20218;-66
2023/03/23 02:52:09;;;;;;;7.97;3.75;;;;;;;;;;4953812;29;20831;-66
2023/03/23 02:54:34;;;;;;;5.82;3.20;;;;;;;;;;4936565;29;20250;-66
2023/03/23 02:57:01;;;;;;;6.43;3.50;;;;;;;;;;4936934;29;20264;-66
2023/03/23 02:59:26;;;;;;;6.15;3.25;;;;;;;;;;4936430;29;20237;-66
2023/03/23 03:01:53;;;;;;;7.20;3.40;;;;;;;;;;4945346;28;20673;-66
2023/03/23 03:04:18;;;;;;;7.07;3.88;;;;;;;;;;4972731;28;20221;-66
2023/03/23 03:06:48;;;;;;;6.32;3.33;;;;;;;;;;4972774;28;20212;-66
2023/03/23 03:09:25;;;;;;;4.85;3.30;;;;;;;;;;4972761;28;20238;-66
2023/03/23 03:11:51;;;;;;;6.82;3.60;;;;;;;;;;4973452;28;20202;-66
2023/03/23 03:14:24;;;;;;;7.28;3.55;;;;;;;;;;4972264;28;20217;-66
2023/03/23 03:17:01;;;;;;;6.25;3.30;;;;;;;;;;4972948;28;20588;-66
2023/03/23 03:19:27;;;;;;;4.82;3.10;;;;;;;;;;4955594;28;20213;-66
2023/03/23 03:21:54;;;;;;;6.07;3.50;;;;;;;;;;4945637;29;20682;-66
2023/03/23 03:24:19;;;;;;;5.28;3.50;;;;;;;;;;4943286;28;20750;-66
2023/03/23 03:26:47;;;;;;;7.53;3.42;;;;;;;;;;4965398;28;20304;-66
2023/03/23 03:29:13;;;;;;;5.55;3.33;;;;;;;;;;4940385;29;20211;-66
2023/03/23 03:31:39;;;;;;;5.88;3.40;;;;;;;;;;4945200;29;20227;-66
2023/03/23 03:34:04;;;;;;;7.07;3.90;;;;;;;;;;4933186;29;20237;-66
2023/03/23 03:36:34;;;;;;;6.38;3.20;;;;;;;;;;4941061;29;20721;-66
2023/03/23 03:38:59;;;;;;;5.75;3.50;;;;;;;;;;4939554;29;20667;-66
2023/03/23 03:41:25;;;;;;;5.75;3.10;;;;;;;;;;4953481;28;20207;-66
2023/03/23 03:43:50;;;;;;;4.93;3.05;;;;;;;;;;4954968;28;20214;-66
2023/03/23 03:46:15;;;;;;;5.70;3.63;;;;;;;;;;4956924;28;20226;-66
2023/03/23 03:48:40;;;;;;;210.85;151.23;;;;;;;;;;4956793;28;20574;-66
2023/03/23 03:51:06;;;;;;;7.13;3.33;;;;;;;;;;4956743;28;20218;-66
2023/03/23 03:53:31;;;;;;;6.15;3.17;;;;;;;;;;4956294;29;20667;-66
2023/03/23 03:55:59;;;;;;;5.80;3.42;;;;;;;;;;4956696;28;20222;-66
2023/03/23 03:58:25;;;;;;;6.78;3.72;;;;;;;;;;4956743;28;20302;-66
2023/03/23 04:00:50;;;;;;;4.93;3.42;;;;;;;;;;4957215;28;20293;-66
2023/03/23 04:03:16;;;;;;;23.42;5.15;;;;;;;;;;4956425;28;20582;-66
2023/03/23 04:05:41;;;;;;;6.03;3.58;;;;;;;;;;4956881;28;20215;-66
2023/03/23 04:08:07;;;;;;;6.63;3.55;;;;;;;;;;4956682;28;20214;-66
2023/03/23 04:10:32;;;;;;;8.07;3.72;;;;;;;;;;4956667;28;20265;-66
2023/03/23 04:12:58;;;;;;;6.05;3.30;;;;;;;;;;4956914;28;20582;-66
2023/03/23 04:15:23;;;;;;;6.82;4.10;;;;;;;;;;4956503;28;20233;-66
2023/03/23 04:17:50;;;;;;;5.70;3.45;;;;;;;;;;4956432;28;20713;-66
2023/03/23 04:20:17;;;;;;;7.03;3.75;;;;;;;;;;4956081;28;20233;-66
2023/03/23 04:22:44;;;;;;;6.25;3.28;;;;;;;;;;4929087;28;20218;-66
2023/03/23 04:25:10;;;;;;;6.35;3.08;;;;;;;;;;4925589;28;20718;-66
2023/03/23 04:27:36;;;;;;;6.93;3.50;;;;;;;;;;4927829;29;20219;-66
2023/03/23 04:30:02;;;;;;;5.93;3.30;;;;;;;;;;4927036;28;20215;-66
2023/03/23 04:32:28;;;;;;;6.60;2.97;;;;;;;;;;4964844;28;20224;-66
2023/03/23 04:34:56;;;;;;;8.60;3.40;;;;;;;;;;4960501;28;20230;-66
2023/03/23 04:37:25;;;;;;;6.47;3.30;;;;;;;;;;4929361;28;20844;-66
2023/03/23 04:40:00;;;;;;;5.75;3.13;;;;;;;;;;4943929;28;20708;-66
2023/03/23 04:42:26;;;;;;;5.10;3.00;;;;;;;;;;4938921;28;20244;-66
2023/03/23 04:44:53;;;;;;;5.68;3.17;;;;;;;;;;4957141;28;20217;-66
2023/03/23 04:47:19;;;;;;;6.22;3.22;;;;;;;;;;4960234;28;20218;-66
2023/03/23 04:49:44;;;;;;;9.15;3.38;;;;;;;;;;4965729;28;20210;-66
2023/03/23 04:52:10;;;;;;;4.38;2.30;;;;;;;;;;4964113;28;20224;-66
2023/03/23 04:54:35;;;;;;;2.33;1.40;;;;;;;;;;4965013;28;20218;-66
2023/03/23 04:57:00;;;;;;;2.63;1.30;;;;;;;;;;4946571;28;20222;-66
2023/03/23 04:59:27;;;;;;;4.97;2.70;;;;;;;;;;4945978;28;20225;-66
2023/03/23 05:01:53;;;;;;;5.63;2.53;;;;;;;;;;4943821;28;20679;-66
2023/03/23 05:04:18;;;;;;;5.55;2.30;;;;;;;;;;4936913;28;20221;-66
2023/03/23 05:06:45;;;;;;;2.33;1.50;;;;;;;;;;4936299;28;20214;-66
2023/03/23 05:09:10;;;;;;;3.65;1.88;;;;;;;;;;4919564;28;20289;-66
2023/03/23 05:11:35;;;;;;;4.07;1.95;;;;;;;;;;4944170;28;20573;-66
2023/03/23 05:14:01;;;;;;;4.20;2.00;;;;;;;;;;4943553;28;20221;-66
2023/03/23 05:16:28;;;;;;;4.40;2.13;;;;;;;;;;4927003;28;20579;-66
2023/03/23 05:18:57;;;;;;;4.13;1.80;;;;;;;;;;4963350;28;20221;-66
2023/03/23 05:21:22;;;;;;;4.55;1.70;;;;;;;;;;4962276;28;20245;-66
2023/03/23 05:23:54;;;;;;;5.00;1.95;;;;;;;;;;4945307;28;20635;-66
2023/03/23 05:26:19;;;;;;;5.25;2.08;;;;;;;;;;4944999;28;20420;-66
2023/03/23 05:28:45;;;;;;;6.43;1.83;;;;;;;;;;4936277;28;20222;-66
2023/03/23 05:31:10;;;;;;;5.82;2.00;;;;;;;;;;4918657;28;20245;-66
2023/03/23 05:33:36;;;;;;;5.38;1.92;;;;;;;;;;4942789;28;20241;-66
2023/03/23 05:36:04;;;;;;;7.30;1.80;;;;;;;;;;4943616;28;20225;-66
2023/03/23 05:38:29;;;;;;;6.32;2.22;;;;;;;;;;4943701;28;20215;-66
2023/03/23 05:40:59;;;;;;;8.88;2.63;;;;;;;;;;4944078;28;20217;-66
2023/03/23 05:43:25;;;;;;;9.63;2.45;;;;;;;;;;4944482;28;20214;-66
2023/03/23 05:45:50;;;;;;;7.75;2.30;;;;;;;;;;4962593;28;20213;-65
2023/03/23 05:48:16;;;;;;;9.95;2.40;;;;;;;;;;4958033;28;20751;-66
2023/03/23 05:50:41;;;;;;;8.52;2.33;;;;;;;;;;4954955;28;20506;-66
2023/03/23 05:53:06;;;;;;;9.30;2.40;;;;;;;;;;4954673;28;20718;-66
2023/03/23 05:55:32;;;;;;;9.38;2.40;;;;;;;;;;4957771;28;20233;-64
2023/03/23 05:57:58;;;;;;;7.18;2.08;;;;;;;;;;4962099;28;20571;-66
2023/03/23 06:00:24;;;;;;;8.20;2.35;;;;;;;;;;4944805;28;20221;-66
2023/03/23 06:02:50;;;;;;;8.65;2.13;;;;;;;;;;4944472;28;20216;-66
2023/03/23 06:05:16;;;;;;;9.48;2.50;;;;;;;;;;4961920;28;20229;-66
2023/03/23 06:07:41;;;;;;;9.55;2.20;;;;;;;;;;4963251;28;20257;-66
2023/03/23 06:10:08;;;;;;;9.70;2.50;;;;;;;;;;4961621;28;20230;-66
2023/03/23 06:12:34;;;;;;;9.25;2.20;;;;;;;;;;4939125;28;20794;-66
2023/03/23 06:14:59;;;;;;;7.20;2.00;;;;;;;;;;4955792;28;20233;-66
2023/03/23 06:17:25;;;;;;;4.30;1.73;;;;;;;;;;4939106;28;20221;-66
2023/03/23 06:19:50;;;;;;;6.60;2.35;;;;;;;;;;4963828;28;20234;-66
2023/03/23 06:22:16;;;;;;;7.88;1.95;;;;;;;;;;4963501;28;20224;-66
2023/03/23 06:24:42;;;;;;;11.85;4.00;;;;;;;;;;4945976;28;20210;-66
2023/03/23 06:27:08;;;;;;;10.80;2.15;;;;;;;;;;4945242;28;20772;-66
2023/03/23 06:29:34;;;;;;;13.75;6.40;;;;;;;;;;4928125;28;20316;-66
2023/03/23 06:32:00;;;;;;;11.40;2.45;;;;;;;;;;4943895;28;20361;-66
2023/03/23 06:34:25;;;;;;;8.32;2.67;;;;;;;;;;4954905;28;20857;-66
2023/03/23 06:36:51;;;;;;;8.00;2.40;;;;;;;;;;4936296;28;20450;-66
2023/03/23 06:39:17;;;;;;;7.00;2.22;;;;;;;;;;4944986;28;20883;-66
2023/03/23 06:41:42;;;;;;;7.13;2.10;;;;;;;;;;4943925;28;20262;-66
2023/03/23 06:44:08;;;;;;;11.70;2.22;;;;;;;;;;4954122;28;20241;-66
2023/03/23 06:46:33;;;;;;;9.75;2.35;;;;;;;;;;4944647;28;20555;-66
2023/03/23 06:48:59;;;;;;;8.23;2.13;;;;;;;;;;4971018;28;20576;-66
2023/03/23 06:51:24;;;;;;;7.18;2.15;;;;;;;;;;4970889;28;20300;-65
2023/03/23 06:53:49;;;;;;;8.68;2.20;;;;;;;;;;4970536;28;20468;-64
2023/03/23 06:56:15;;;;;;;8.38;1.70;;;;;;;;;;4961709;28;20342;-65
2023/03/23 06:58:41;;;;;;;9.43;2.70;;;;;;;;;;4943133;28;20203;-64
2023/03/23 07:01:08;;;;;;;7.00;2.00;;;;;;;;;;4961171;28;20595;-64
2023/03/23 07:03:33;;;;;;;8.15;2.00;;;;;;;;;;4960159;28;20693;-64
2023/03/23 07:05:59;;;;;;;9.07;2.03;;;;;;;;;;4961851;28;20201;-64
2023/03/23 07:08:24;;;;;;;7.80;2.20;;;;;;;;;;4942571;28;20210;-64
2023/03/23 07:10:52;;;;;;;8.10;2.13;;;;;;;;;;4961129;28;20213;-64
2023/03/23 07:13:17;;;;;;;9.85;2.10;;;;;;;;;;4961164;28;20214;-64
2023/03/23 07:15:43;;;;;;;9.88;2.42;;;;;;;;;;4960213;28;20313;-64
2023/03/23 07:18:09;;;;;;;9.70;2.17;;;;;;;;;;4962962;28;20212;-64
2023/03/23 07:20:34;;;;;;;8.77;2.00;;;;;;;;;;4965077;28;20214;-64
2023/03/23 07:23:01;;;;;;;10.07;2.30;;;;;;;;;;4946663;28;20762;-64
2023/03/23 07:25:26;;;;;;;7.93;2.08;;;;;;;;;;4965128;28;20232;-64
2023/03/23 07:27:52;;;;;;;9.75;2.42;;;;;;;;;;4964098;28;20661;-64
2023/03/23 07:30:17;;;;;;;14.20;2.50;;;;;;;;;;4965152;28;20263;-64
2023/03/23 07:32:43;;;;;;;9.95;2.40;;;;;;;;;;4945660;28;20592;-65
2023/03/23 07:35:09;;;;;;;9.60;2.20;;;;;;;;;;4954241;28;20720;-65
2023/03/23 07:37:35;;;;;;;10.25;2.38;;;;;;;;;;4966099;28;20680;-65
2023/03/23 07:40:11;;;;;;;10.57;2.67;;;;;;;;;;4964731;28;20254;-65
2023/03/23 07:42:36;;;;;;;10.30;2.67;;;;;;;;;;4958754;28;20526;-65
2023/03/23 07:45:02;;;;;;;8.27;2.35;;;;;;;;;;4963343;28;20296;-62
2023/03/23 07:47:27;;;;;;;10.65;2.88;;;;;;;;;;4945476;28;20318;-64
2023/03/23 07:49:52;;;;;;;8.30;2.00;;;;;;;;;;4964871;28;20564;-64
2023/03/23 07:52:17;;;;;;;8.45;2.22;;;;;;;;;;4965462;28;20257;-62
2023/03/23 07:54:43;;;;;;;4.88;1.63;;;;;;;;;;4965524;28;20588;-62
2023/03/23 07:57:08;;;;;;;10.27;2.13;;;;;;;;;;4944722;28;20222;-62
2023/03/23 07:59:33;;;;;;;6.95;1.73;;;;;;;;;;4947619;28;20206;-62
2023/03/23 08:01:59;;;;;;;5.90;1.70;;;;;;;;;;4963316;28;20202;-62
2023/03/23 08:04:24;;;;;;;6.55;2.13;;;;;;;;;;4962054;28;20221;-63
2023/03/23 08:06:49;;;;;;;9.35;1.98;;;;;;;;;;4955131;29;20560;-65
2023/03/23 08:09:15;;;;;;;5.47;1.80;;;;;;;;;;4954623;29;20221;-64
2023/03/23 08:11:40;;;;;;;6.05;1.70;;;;;;;;;;4954791;29;20314;-65
2023/03/23 08:14:06;;;;;;;7.85;2.13;;;;;;;;;;4954525;29;20221;-65
2023/03/23 08:16:31;;;;;;;4.88;2.00;;;;;;;;;;4954551;29;20230;-64
2023/03/23 08:18:57;;;;;;;10.15;1.90;;;;;;;;;;4954602;29;20556;-64
2023/03/23 08:21:22;;;;;;;6.78;1.90;;;;;;;;;;4954417;29;20274;-64
2023/03/23 08:23:48;;;;;;;11.27;2.13;;;;;;;;;;4954208;29;20282;-64
2023/03/23 08:26:15;;;;;;;7.60;1.70;;;;;;;;;;4953957;28;20724;-64
2023/03/23 08:28:40;;;;;;;8.93;2.00;;;;;;;;;;4953963;28;20640;-64
2023/03/23 08:31:06;;;;;;;6.35;1.83;;;;;;;;;;4968381;28;20328;-64
2023/03/23 08:33:32;;;;;;;7.72;2.33;;;;;;;;;;4973630;28;20296;-64
2023/03/23 08:35:57;;;;;;;8.57;2.20;;;;;;;;;;4973946;28;20241;-64
2023/03/23 08:38:23;;;;;;;10.00;2.50;;;;;;;;;;4971219;28;20240;-64
2023/03/23 08:40:50;;;;;;;7.80;2.33;;;;;;;;;;4954340;29;20203;-64
2023/03/23 08:43:15;;;;;;;7.35;2.13;;;;;;;;;;4953875;29;20677;-64
2023/03/23 08:45:41;;;;;;;9.05;2.38;;;;;;;;;;4953831;29;20210;-64
2023/03/23 08:48:07;;;;;;;7.80;2.35;;;;;;;;;;4953803;29;20281;-64
2023/03/23 08:50:32;;;;;;;7.20;2.13;;;;;;;;;;4954548;29;20236;-64
2023/03/23 08:52:58;;;;;;;9.90;2.22;;;;;;;;;;4957363;28;20237;-64
2023/03/23 08:55:24;;;;;;;6.97;2.03;;;;;;;;;;4959025;28;20233;-64
2023/03/23 08:57:49;;;;;;;8.27;2.20;;;;;;;;;;4953975;29;20261;-64
2023/03/23 09:00:17;;;;;;;7.25;1.95;;;;;;;;;;4953142;29;20222;-64
2023/03/23 09:02:44;;;;;;;5.97;1.95;;;;;;;;;;4954196;29;20299;-64
2023/03/23 09:05:10;;;;;;;8.80;2.00;;;;;;;;;;4953127;29;20211;-64
2023/03/23 09:07:36;;;;;;;8.35;1.55;;;;;;;;;;4953929;29;20214;-64
2023/03/23 09:10:02;;;;;;;7.57;1.90;;;;;;;;;;4953446;29;20214;-64
2023/03/23 09:12:27;;;;;;;7.95;1.95;;;;;;;;;;4953303;29;20325;-64
2023/03/23 09:14:52;;;;;;;6.38;1.55;;;;;;;;;;4953718;29;20342;-64
2023/03/23 09:17:18;;;;;;;4.88;1.38;;;;;;;;;;4953231;29;20249;-64
2023/03/23 09:19:44;;;;;;;6.40;1.70;;;;;;;;;;4959710;28;20214;-64
2023/03/23 09:22:09;;;;;;;6.57;1.73;;;;;;;;;;4959696;28;20649;-65
2023/03/23 09:24:34;;;;;;;7.50;2.03;;;;;;;;;;4943193;29;20214;-64
2023/03/23 09:27:00;;;;;;;7.00;1.70;;;;;;;;;;4954938;28;20211;-64
2023/03/23 09:29:26;;;;;;;6.25;1.70;;;;;;;;;;4956283;28;20810;-64
2023/03/23 09:31:52;;;;;;;3.78;1.30;;;;;;;;;;4974656;28;20592;-65
2023/03/23 09:34:17;;;;;;;5.53;1.30;;;;;;;;;;4974258;28;20229;-65
2023/03/23 09:36:43;;;;;;;6.35;1.33;;;;;;;;;;4974635;28;20226;-65
2023/03/23 09:39:11;;;;;;;4.53;1.25;;;;;;;;;;4966387;28;20285;-65
2023/03/23 09:41:44;;;;;;;5.45;1.35;;;;;;;;;;4954023;28;20225;-65
2023/03/23 09:44:25;;;;;;;5.75;1.30;;;;;;;;;;4937707;29;20673;-65
2023/03/23 09:46:50;;;;;;;4.10;1.38;;;;;;;;;;4938354;29;20269;-65
2023/03/23 09:49:18;;;;;;;6.13;1.80;;;;;;;;;;4954222;29;20697;-65
2023/03/23 09:51:46;;;;;;;5.63;1.58;;;;;;;;;;4938179;29;20701;-65
2023/03/23 09:54:15;;;;;;;4.60;1.55;;;;;;;;;;4963910;28;20211;-65
2023/03/23 09:56:40;;;;;;;6.05;1.80;;;;;;;;;;4937354;29;20234;-65
2023/03/23 09:59:13;;;;;;;6.40;1.50;;;;;;;;;;4954493;29;20256;-65
2023/03/23 10:01:40;;;;;;;7.85;2.08;;;;;;;;;;4937740;29;20214;-65
2023/03/23 10:04:11;;;;;;;7.80;2.03;;;;;;;;;;4937300;29;20250;-65
2023/03/23 10:06:36;;;;;;;8.05;1.90;;;;;;;;;;4937984;29;20261;-65
2023/03/23 10:09:03;;;;;;;8.65;2.15;;;;;;;;;;4953913;29;20210;-64
2023/03/23 10:11:33;;;;;;;6.63;2.10;;;;;;;;;;4954583;29;20207;-64
2023/03/23 10:13:58;;;;;;;8.88;2.20;;;;;;;;;;4954637;29;20305;-64
2023/03/23 10:16:25;;;;;;;10.40;2.60;;;;;;;;;;4952784;29;20511;-65
2023/03/23 10:18:51;;;;;;;8.90;2.40;;;;;;;;;;4940687;28;20305;-65
2023/03/23 10:21:17;;;;;;;11.23;2.30;;;;;;;;;;4968071;28;20402;-65
2023/03/23 10:23:46;;;;;;;10.35;2.10;;;;;;;;;;4967145;28;20703;-66
2023/03/23 10:26:21;;;;;;;8.57;2.00;;;;;;;;;;4944234;28;20630;-66
2023/03/23 10:28:50;;;;;;;10.02;2.75;;;;;;;;;;4962670;28;20221;-67
2023/03/23 10:31:17;;;;;;;9.65;2.30;;;;;;;;;;4962313;28;20277;-67
2023/03/23 10:33:44;;;;;;;11.18;2.25;;;;;;;;;;4947821;28;20214;-68
2023/03/23 10:36:25;;;;;;;8.80;2.17;;;;;;;;;;4962369;28;20222;-67
2023/03/23 10:38:56;;;;;;;12.02;2.50;;;;;;;;;;4945251;29;20214;-67
2023/03/23 10:41:22;;;;;;;10.63;2.40;;;;;;;;;;4953752;28;20251;-66
2023/03/23 10:43:54;;;;;;;9.82;2.30;;;;;;;;;;4964514;28;20280;-66
2023/03/23 10:46:27;;;;;;;15.50;3.30;;;;;;;;;;4972723;28;20214;-66
2023/03/23 10:48:53;;;;;;;11.43;2.45;;;;;;;;;;4973546;28;20333;-66
2023/03/23 10:51:20;;;;;;;8.38;3.00;;;;;;;;;;4954873;28;20324;-66
2023/03/23 10:53:49;;;;;;;12.90;2.95;;;;;;;;;;4954677;28;20257;-66
2023/03/23 10:56:22;;;;;;;10.85;2.50;;;;;;;;;;4936696;29;20230;-66
2023/03/23 10:58:47;;;;;;;11.43;2.95;;;;;;;;;;4953694;29;20689;-66
2023/03/23 11:01:12;;;;;;;11.40;3.00;;;;;;;;;;4953465;29;20219;-66
2023/03/23 11:03:43;;;;;;;12.27;2.70;;;;;;;;;;4954151;29;20214;-66
2023/03/23 11:06:10;;;;;;;9.98;2.50;;;;;;;;;;4953049;29;20724;-66
2023/03/23 11:08:36;;;;;;;11.57;2.60;;;;;;;;;;4937067;29;20688;-66
2023/03/23 11:11:15;;;;;;;13.43;2.97;;;;;;;;;;4953816;29;20309;-65
2023/03/23 11:13:44;;;;;;;10.40;2.60;;;;;;;;;;4953419;29;20210;-67
2023/03/23 11:16:10;;;;;;;10.35;2.33;;;;;;;;;;4953508;29;20316;-66
2023/03/23 11:18:39;;;;;;;11.10;2.40;;;;;;;;;;4954226;29;20623;-67
2023/03/23 11:21:05;;;;;;;11.70;2.72;;;;;;;;;;4952981;29;20237;-66
2023/03/23 11:23:32;;;;;;;10.75;2.55;;;;;;;;;;4953861;29;20217;-66
2023/03/23 11:26:01;;;;;;;14.70;2.28;;;;;;;;;;4937530;28;20582;-66
2023/03/23 11:28:28;;;;;;;9.50;2.25;;;;;;;;;;4972953;28;20291;-66
2023/03/23 11:30:54;;;;;;;10.68;2.55;;;;;;;;;;4942514;29;20589;-66
2023/03/23 11:33:19;;;;;;;11.40;2.35;;;;;;;;;;4935977;29;20310;-66
2023/03/23 11:35:45;;;;;;;12.07;2.42;;;;;;;;;;4954044;29;20705;-66
2023/03/23 11:38:16;;;;;;;14.45;2.20;;;;;;;;;;4953353;29;20214;-66
2023/03/23 11:40:47;;;;;;;12.35;2.25;;;;;;;;;;4953481;28;20214;-66
2023/03/23 11:43:13;;;;;;;11.75;2.42;;;;;;;;;;4953283;28;20211;-66
2023/03/23 11:45:40;;;;;;;13.68;2.53;;;;;;;;;;4936864;29;20219;-66
2023/03/23 11:48:13;;;;;;;11.23;2.33;;;;;;;;;;4952448;28;20226;-66
2023/03/23 11:50:48;;;;;;;8.00;2.20;;;;;;;;;;4936785;29;20210;-66
2023/03/23 11:53:15;;;;;;;9.15;2.20;;;;;;;;;;4953116;28;20253;-66
2023/03/23 11:55:56;;;;;;;11.88;2.25;;;;;;;;;;4968905;28;20261;-66
2023/03/23 11:58:21;;;;;;;9.00;2.45;;;;;;;;;;4972592;28;20255;-66
2023/03/23 12:00:56;;;;;;;10.40;2.20;;;;;;;;;;4973044;28;20213;-66
2023/03/23 12:03:23;;;;;;;9.07;2.17;;;;;;;;;;4952679;28;20222;-66
2023/03/23 12:05:56;;;;;;;8.52;2.20;;;;;;;;;;4939871;29;20211;-66
2023/03/23 12:08:25;;;;;;;9.52;2.42;;;;;;;;;;4955997;28;20214;-66
2023/03/23 12:11:05;;;;;;;12.77;2.30;;;;;;;;;;4939807;29;20207;-66
2023/03/23 12:13:35;;;;;;;8.80;2.10;;;;;;;;;;4957050;28;20225;-65
2023/03/23 12:16:01;;;;;;;8.32;2.53;;;;;;;;;;4963404;28;20291;-65
2023/03/23 12:18:32;;;;;;;8.20;2.40;;;;;;;;;;4961920;28;20218;-65
2023/03/23 12:21:06;;;;;;;9.68;2.63;;;;;;;;;;4939796;29;20705;-65
2023/03/23 12:23:35;;;;;;;12.07;2.65;;;;;;;;;;4949029;28;20217;-65
2023/03/23 12:26:08;;;;;;;9.95;2.40;;;;;;;;;;4957543;28;20226;-64
2023/03/23 12:28:35;;;;;;;10.57;2.80;;;;;;;;;;4956201;28;20237;-65
2023/03/23 12:31:10;;;;;;;7.88;2.47;;;;;;;;;;4955032;28;20231;-65
2023/03/23 12:33:46;;;;;;;9.65;2.67;;;;;;;;;;4975829;28;20217;-65
2023/03/23 12:36:12;;;;;;;10.60;2.40;;;;;;;;;;4957849;28;20233;-65
2023/03/23 12:38:58;;;;;;;6.75;2.10;;;;;;;;;;4972075;28;20341;-65
2023/03/23 12:41:33;;;;;;;8.38;2.60;;;;;;;;;;4939029;29;20573;-65
2023/03/23 12:44:05;;;;;;;9.57;2.70;;;;;;;;;;4956181;29;20230;-65
2023/03/23 12:46:40;;;;;;;10.02;2.47;;;;;;;;;;4955356;28;20298;-65
2023/03/23 12:49:11;;;;;;;9.85;2.72;;;;;;;;;;4957972;28;20217;-65
2023/03/23 12:51:40;;;;;;;9.55;2.80;;;;;;;;;;4974911;28;20652;-65
2023/03/23 12:54:12;;;;;;;8.43;2.33;;;;;;;;;;4948287;28;20213;-65
2023/03/23 12:56:39;;;;;;;7.65;2.40;;;;;;;;;;4958425;28;20221;-65
2023/03/23 12:59:09;;;;;;;6.05;2.03;;;;;;;;;;4957119;28;20210;-65
2023/03/23 13:01:40;;;;;;;10.15;2.25;;;;;;;;;;4975389;28;20681;-65
2023/03/23 13:04:07;;;;;;;7.85;2.10;;;;;;;;;;4975002;28;20268;-65
2023/03/23 13:06:35;;;;;;;6.63;2.22;;;;;;;;;;4957477;28;20306;-65
2023/03/23 13:09:06;;;;;;;7.82;2.35;;;;;;;;;;4974887;28;20288;-65
2023/03/23 13:11:33;;;;;;;8.57;2.33;;;;;;;;;;4957701;28;20219;-65
2023/03/23 13:14:02;;;;;;;8.68;2.03;;;;;;;;;;4975152;28;20225;-66
2023/03/23 13:16:46;;;;;;;8.73;2.13;;;;;;;;;;4974578;28;20656;-69
2023/03/23 13:19:15;;;;;;;6.88;1.63;;;;;;;;;;4974153;28;20214;-67
2023/03/23 13:21:44;;;;;;;8.20;2.08;;;;;;;;;;4957500;28;20259;-67
2023/03/23 13:24:11;;;;;;;8.57;2.30;;;;;;;;;;4957403;28;20221;-67
2023/03/23 13:26:37;;;;;;;7.05;2.10;;;;;;;;;;4950851;29;20305;-67
2023/03/23 13:29:08;;;;;;;7.50;2.45;;;;;;;;;;4960090;28;20209;-67
2023/03/23 13:31:35;;;;;;;8.05;2.30;;;;;;;;;;4955578;28;20598;-67
2023/03/23 13:34:00;;;;;;;10.02;2.63;;;;;;;;;;4969847;28;20352;-65
2023/03/23 13:36:28;;;;;;;8.05;2.15;;;;;;;;;;4958688;28;20321;-67
2023/03/23 13:38:53;;;;;;;7.20;2.13;;;;;;;;;;4955712;28;20353;-67
2023/03/23 13:41:20;;;;;;;6.00;1.90;;;;;;;;;;4954216;29;20293;-66
2023/03/23 13:43:45;;;;;;;7.75;2.30;;;;;;;;;;4954403;28;20211;-66
2023/03/23 13:46:12;;;;;;;7.22;2.20;;;;;;;;;;4954933;28;20573;-66
2023/03/23 13:48:44;;;;;;;6.15;1.90;;;;;;;;;;4954151;28;20759;-66
2023/03/23 13:51:24;;;;;;;6.85;1.98;;;;;;;;;;4954000;28;20556;-66
2023/03/23 13:53:51;;;;;;;7.60;2.20;;;;;;;;;;4955943;28;20250;-67
2023/03/23 13:56:35;;;;;;;7.55;1.83;;;;;;;;;;4973786;28;20230;-65
2023/03/23 13:59:12;;;;;;;9.77;2.45;;;;;;;;;;4956818;28;20222;-65
2023/03/23 14:01:39;;;;;;;8.07;2.10;;;;;;;;;;4956560;28;20314;-67
2023/03/23 14:04:04;;;;;;;8.57;1.95;;;;;;;;;;4973844;28;20289;-67
2023/03/23 14:06:33;;;;;;;6.40;2.00;;;;;;;;;;4947166;28;20242;-67
2023/03/23 14:09:04;;;;;;;7.97;2.10;;;;;;;;;;4945689;28;20217;-67
2023/03/23 14:11:30;;;;;;;7.80;2.30;;;;;;;;;;4953784;28;20221;-65
2023/03/23 14:14:01;;;;;;;7.50;2.08;;;;;;;;;;4974171;28;20577;-65
2023/03/23 14:16:40;;;;;;;8.48;2.03;;;;;;;;;;4973138;28;20226;-66
2023/03/23 14:19:17;;;;;;;5.57;2.28;;;;;;;;;;4939421;29;20213;-66
2023/03/23 14:21:45;;;;;;;6.45;2.08;;;;;;;;;;4953956;29;20345;-66
2023/03/23 14:24:12;;;;;;;6.97;2.70;;;;;;;;;;4936788;29;20211;-66
2023/03/23 14:26:37;;;;;;;7.97;2.08;;;;;;;;;;4938227;28;20210;-67
2023/03/23 14:29:03;;;;;;;7.38;2.25;;;;;;;;;;4969607;28;20206;-65
2023/03/23 14:31:28;;;;;;;6.03;2.05;;;;;;;;;;4955390;28;20231;-66
2023/03/23 14:33:55;;;;;;;5.22;2.13;;;;;;;;;;4937366;29;20246;-67
2023/03/23 14:36:27;;;;;;;9.52;2.90;;;;;;;;;;4935826;29;20321;-68
2023/03/23 14:38:56;;;;;;;8.05;2.70;;;;;;;;;;4959820;28;20202;-66
2023/03/23 14:41:21;;;;;;;6.00;2.20;;;;;;;;;;4973147;28;20216;-66